sensor_id;sensor_type;location;lat;lon;timestamp;P1;durP1;ratioP1;P2;durP2;ratioP2
38851;SDS011;24605;50.092;9.182;2023-04-24T00:01:00;4.95;;;1.98;;
38851;SDS011;24605;50.092;9.182;2023-04-24T00:03:27;3.20;;;1.52;;
38851;SDS011;24605;50.092;9.182;2023-04-24T00:05:54;6.53;;;1.60;;
38851;SDS011;24605;50.092;9.182;2023-04-24T00:08:22;4.53;;;2.13;;
38851;SDS011;24605;50.092;9.182;2023-04-24T00:10:48;4.07;;;1.80;;
38851;SDS011;24605;50.092;9.182;2023-04-24T00:13:15;4.70;;;1.75;;
38851;SDS011;24605;50.092;9.182;2023-04-24T00:15:41;3.40;;;1.50;;
38851;SDS011;24605;50.092;9.182;2023-04-24T00:18:08;3.00;;;1.27;;
38851;SDS011;24605;50.092;9.182;2023-04-24T00:20:34;4.45;;;1.30;;
38851;SDS011;24605;50.092;9.182;2023-04-24T00:23:01;3.75;;;1.33;;
38851;SDS011;24605;50.092;9.182;2023-04-24T00:25:29;3.55;;;1.50;;
38851;SDS011;24605;50.092;9.182;2023-04-24T00:27:55;3.08;;;1.40;;
38851;SDS011;24605;50.092;9.182;2023-04-24T00:30:22;4.53;;;1.50;;
38851;SDS011;24605;50.092;9.182;2023-04-24T00:32:48;5.30;;;1.77;;
38851;SDS011;24605;50.092;9.182;2023-04-24T00:35:15;5.45;;;1.50;;
38851;SDS011;24605;50.092;9.182;2023-04-24T00:37:41;2.88;;;1.50;;
38851;SDS011;24605;50.092;9.182;2023-04-24T00:40:08;3.50;;;1.20;;
38851;SDS011;24605;50.092;9.182;2023-04-24T00:42:36;8.38;;;1.80;;
38851;SDS011;24605;50.092;9.182;2023-04-24T00:45:03;4.60;;;1.40;;
38851;SDS011;24605;50.092;9.182;2023-04-24T00:47:30;3.13;;;1.38;;
38851;SDS011;24605;50.092;9.182;2023-04-24T00:50:00;2.55;;;1.42;;
38851;SDS011;24605;50.092;9.182;2023-04-24T00:52:27;3.63;;;1.30;;
38851;SDS011;24605;50.092;9.182;2023-04-24T00:54:56;3.55;;;1.40;;
38851;SDS011;24605;50.092;9.182;2023-04-24T00:57:22;3.75;;;1.50;;
38851;SDS011;24605;50.092;9.182;2023-04-24T00:59:51;5.60;;;1.58;;
38851;SDS011;24605;50.092;9.182;2023-04-24T01:02:18;3.72;;;1.30;;
38851;SDS011;24605;50.092;9.182;2023-04-24T01:04:47;4.68;;;1.60;;
38851;SDS011;24605;50.092;9.182;2023-04-24T01:07:15;3.40;;;1.58;;
38851;SDS011;24605;50.092;9.182;2023-04-24T01:09:43;3.88;;;1.38;;
38851;SDS011;24605;50.092;9.182;2023-04-24T01:12:12;2.53;;;1.40;;
38851;SDS011;24605;50.092;9.182;2023-04-24T01:14:38;3.97;;;1.33;;
38851;SDS011;24605;50.092;9.182;2023-04-24T01:17:06;3.22;;;1.35;;
38851;SDS011;24605;50.092;9.182;2023-04-24T01:19:34;3.53;;;1.42;;
38851;SDS011;24605;50.092;9.182;2023-04-24T01:22:02;4.00;;;1.65;;
38851;SDS011;24605;50.092;9.182;2023-04-24T01:24:30;2.65;;;1.20;;
38851;SDS011;24605;50.092;9.182;2023-04-24T01:26:57;3.45;;;1.17;;
38851;SDS011;24605;50.092;9.182;2023-04-24T01:29:23;2.97;;;1.00;;
38851;SDS011;24605;50.092;9.182;2023-04-24T01:31:50;3.28;;;1.10;;
38851;SDS011;24605;50.092;9.182;2023-04-24T01:34:17;3.92;;;1.27;;
38851;SDS011;24605;50.092;9.182;2023-04-24T01:36:44;2.92;;;1.23;;
38851;SDS011;24605;50.092;9.182;2023-04-24T01:39:12;3.47;;;1.40;;
38851;SDS011;24605;50.092;9.182;2023-04-24T01:41:40;2.88;;;0.90;;
38851;SDS011;24605;50.092;9.182;2023-04-24T01:44:06;4.53;;;1.30;;
38851;SDS011;24605;50.092;9.182;2023-04-24T01:46:33;4.32;;;1.23;;
38851;SDS011;24605;50.092;9.182;2023-04-24T01:49:00;3.22;;;1.17;;
38851;SDS011;24605;50.092;9.182;2023-04-24T01:51:28;3.42;;;1.00;;
38851;SDS011;24605;50.092;9.182;2023-04-24T01:53:55;4.20;;;1.30;;
38851;SDS011;24605;50.092;9.182;2023-04-24T01:56:21;2.60;;;1.15;;
38851;SDS011;24605;50.092;9.182;2023-04-24T01:58:49;4.97;;;1.10;;
38851;SDS011;24605;50.092;9.182;2023-04-24T02:01:18;2.88;;;0.90;;
38851;SDS011;24605;50.092;9.182;2023-04-24T02:03:45;2.95;;;0.95;;
38851;SDS011;24605;50.092;9.182;2023-04-24T02:06:11;3.20;;;1.00;;
38851;SDS011;24605;50.092;9.182;2023-04-24T02:08:38;3.75;;;0.98;;
38851;SDS011;24605;50.092;9.182;2023-04-24T02:11:04;2.28;;;1.00;;
38851;SDS011;24605;50.092;9.182;2023-04-24T02:13:31;3.47;;;0.90;;
38851;SDS011;24605;50.092;9.182;2023-04-24T02:15:59;2.88;;;1.05;;
38851;SDS011;24605;50.092;9.182;2023-04-24T02:18:25;3.25;;;1.17;;
38851;SDS011;24605;50.092;9.182;2023-04-24T02:20:52;6.30;;;1.30;;
38851;SDS011;24605;50.092;9.182;2023-04-24T02:23:18;2.85;;;1.17;;
38851;SDS011;24605;50.092;9.182;2023-04-24T02:25:45;3.45;;;1.08;;
38851;SDS011;24605;50.092;9.182;2023-04-24T02:28:12;2.95;;;1.15;;
38851;SDS011;24605;50.092;9.182;2023-04-24T02:30:38;3.30;;;1.10;;
38851;SDS011;24605;50.092;9.182;2023-04-24T02:33:12;4.07;;;0.90;;
38851;SDS011;24605;50.092;9.182;2023-04-24T02:35:38;3.87;;;1.00;;
38851;SDS011;24605;50.092;9.182;2023-04-24T02:38:05;2.85;;;0.98;;
38851;SDS011;24605;50.092;9.182;2023-04-24T02:40:31;2.88;;;1.00;;
38851;SDS011;24605;50.092;9.182;2023-04-24T02:42:58;6.03;;;1.10;;
38851;SDS011;24605;50.092;9.182;2023-04-24T02:45:24;2.92;;;1.00;;
38851;SDS011;24605;50.092;9.182;2023-04-24T02:47:51;3.10;;;1.08;;
38851;SDS011;24605;50.092;9.182;2023-04-24T02:50:18;3.35;;;0.95;;
38851;SDS011;24605;50.092;9.182;2023-04-24T02:52:45;2.30;;;1.00;;
38851;SDS011;24605;50.092;9.182;2023-04-24T02:55:11;3.10;;;0.88;;
38851;SDS011;24605;50.092;9.182;2023-04-24T02:57:38;5.28;;;1.20;;
38851;SDS011;24605;50.092;9.182;2023-04-24T03:00:05;4.55;;;1.00;;
38851;SDS011;24605;50.092;9.182;2023-04-24T03:02:34;4.22;;;1.08;;
38851;SDS011;24605;50.092;9.182;2023-04-24T03:05:00;4.43;;;1.27;;
38851;SDS011;24605;50.092;9.182;2023-04-24T03:07:28;2.67;;;1.05;;
38851;SDS011;24605;50.092;9.182;2023-04-24T03:09:56;2.25;;;0.90;;
38851;SDS011;24605;50.092;9.182;2023-04-24T03:12:23;3.85;;;1.13;;
38851;SDS011;24605;50.092;9.182;2023-04-24T03:14:49;4.70;;;1.00;;
38851;SDS011;24605;50.092;9.182;2023-04-24T03:17:16;3.78;;;1.10;;
38851;SDS011;24605;50.092;9.182;2023-04-24T03:19:42;4.03;;;1.00;;
38851;SDS011;24605;50.092;9.182;2023-04-24T03:22:08;3.55;;;1.30;;
38851;SDS011;24605;50.092;9.182;2023-04-24T03:24:37;3.28;;;1.00;;
38851;SDS011;24605;50.092;9.182;2023-04-24T03:27:04;5.63;;;1.05;;
38851;SDS011;24605;50.092;9.182;2023-04-24T03:29:30;3.33;;;0.95;;
38851;SDS011;24605;50.092;9.182;2023-04-24T03:31:56;4.45;;;1.10;;
38851;SDS011;24605;50.092;9.182;2023-04-24T03:34:23;5.75;;;1.05;;
38851;SDS011;24605;50.092;9.182;2023-04-24T03:36:50;3.10;;;1.25;;
38851;SDS011;24605;50.092;9.182;2023-04-24T03:39:17;5.72;;;1.30;;
38851;SDS011;24605;50.092;9.182;2023-04-24T03:41:45;3.40;;;1.08;;
38851;SDS011;24605;50.092;9.182;2023-04-24T03:44:11;3.22;;;1.27;;
38851;SDS011;24605;50.092;9.182;2023-04-24T03:46:38;6.10;;;1.20;;
38851;SDS011;24605;50.092;9.182;2023-04-24T03:49:04;4.72;;;1.20;;
38851;SDS011;24605;50.092;9.182;2023-04-24T03:51:31;4.47;;;1.58;;
38851;SDS011;24605;50.092;9.182;2023-04-24T03:53:57;4.63;;;1.33;;
38851;SDS011;24605;50.092;9.182;2023-04-24T03:56:24;4.70;;;1.25;;
38851;SDS011;24605;50.092;9.182;2023-04-24T03:58:51;2.53;;;0.93;;
38851;SDS011;24605;50.092;9.182;2023-04-24T04:01:18;5.68;;;1.42;;
38851;SDS011;24605;50.092;9.182;2023-04-24T04:03:45;6.03;;;3.78;;
38851;SDS011;24605;50.092;9.182;2023-04-24T04:06:12;4.97;;;1.20;;
38851;SDS011;24605;50.092;9.182;2023-04-24T04:08:38;3.78;;;1.15;;
38851;SDS011;24605;50.092;9.182;2023-04-24T04:11:05;4.60;;;1.50;;
38851;SDS011;24605;50.092;9.182;2023-04-24T04:13:31;4.15;;;1.10;;
38851;SDS011;24605;50.092;9.182;2023-04-24T04:16:00;2.80;;;1.10;;
38851;SDS011;24605;50.092;9.182;2023-04-24T04:18:26;5.50;;;1.10;;
38851;SDS011;24605;50.092;9.182;2023-04-24T04:20:53;2.97;;;1.20;;
38851;SDS011;24605;50.092;9.182;2023-04-24T04:23:19;6.20;;;1.40;;
38851;SDS011;24605;50.092;9.182;2023-04-24T04:25:45;5.15;;;1.50;;
38851;SDS011;24605;50.092;9.182;2023-04-24T04:28:12;3.30;;;1.38;;
38851;SDS011;24605;50.092;9.182;2023-04-24T04:30:40;3.85;;;1.38;;
38851;SDS011;24605;50.092;9.182;2023-04-24T04:33:08;4.43;;;1.38;;
38851;SDS011;24605;50.092;9.182;2023-04-24T04:35:35;2.25;;;1.10;;
38851;SDS011;24605;50.092;9.182;2023-04-24T04:38:02;3.63;;;1.35;;
38851;SDS011;24605;50.092;9.182;2023-04-24T04:40:29;4.53;;;1.63;;
38851;SDS011;24605;50.092;9.182;2023-04-24T04:42:56;3.15;;;1.55;;
38851;SDS011;24605;50.092;9.182;2023-04-24T04:45:23;5.55;;;1.58;;
38851;SDS011;24605;50.092;9.182;2023-04-24T04:47:51;3.00;;;1.60;;
38851;SDS011;24605;50.092;9.182;2023-04-24T04:50:21;6.75;;;1.70;;
38851;SDS011;24605;50.092;9.182;2023-04-24T04:52:47;2.67;;;1.40;;
38851;SDS011;24605;50.092;9.182;2023-04-24T04:55:14;4.25;;;1.67;;
38851;SDS011;24605;50.092;9.182;2023-04-24T04:57:40;3.83;;;1.58;;
38851;SDS011;24605;50.092;9.182;2023-04-24T05:00:07;4.43;;;1.77;;
38851;SDS011;24605;50.092;9.182;2023-04-24T05:02:36;4.32;;;1.80;;
38851;SDS011;24605;50.092;9.182;2023-04-24T05:05:03;4.03;;;1.70;;
38851;SDS011;24605;50.092;9.182;2023-04-24T05:07:32;3.47;;;2.00;;
38851;SDS011;24605;50.092;9.182;2023-04-24T05:09:59;4.15;;;2.00;;
38851;SDS011;24605;50.092;9.182;2023-04-24T05:12:25;6.30;;;1.73;;
38851;SDS011;24605;50.092;9.182;2023-04-24T05:14:52;4.57;;;2.15;;
38851;SDS011;24605;50.092;9.182;2023-04-24T05:17:18;5.68;;;2.85;;
38851;SDS011;24605;50.092;9.182;2023-04-24T05:19:45;4.03;;;2.58;;
38851;SDS011;24605;50.092;9.182;2023-04-24T05:22:13;3.22;;;2.10;;
38851;SDS011;24605;50.092;9.182;2023-04-24T05:24:41;5.20;;;2.22;;
38851;SDS011;24605;50.092;9.182;2023-04-24T05:27:07;3.10;;;1.90;;
38851;SDS011;24605;50.092;9.182;2023-04-24T05:29:33;4.05;;;2.53;;
38851;SDS011;24605;50.092;9.182;2023-04-24T05:32:00;5.50;;;2.38;;
38851;SDS011;24605;50.092;9.182;2023-04-24T05:34:27;5.25;;;2.40;;
38851;SDS011;24605;50.092;9.182;2023-04-24T05:36:53;4.47;;;2.30;;
38851;SDS011;24605;50.092;9.182;2023-04-24T05:39:20;4.57;;;2.10;;
38851;SDS011;24605;50.092;9.182;2023-04-24T05:41:47;4.70;;;2.30;;
38851;SDS011;24605;50.092;9.182;2023-04-24T05:44:14;4.28;;;2.20;;
38851;SDS011;24605;50.092;9.182;2023-04-24T05:46:40;3.28;;;2.00;;
38851;SDS011;24605;50.092;9.182;2023-04-24T05:49:07;4.68;;;2.45;;
38851;SDS011;24605;50.092;9.182;2023-04-24T05:51:33;5.00;;;2.00;;
38851;SDS011;24605;50.092;9.182;2023-04-24T05:54:00;5.57;;;2.20;;
38851;SDS011;24605;50.092;9.182;2023-04-24T05:56:28;5.95;;;2.20;;
38851;SDS011;24605;50.092;9.182;2023-04-24T05:58:56;3.88;;;2.10;;
38851;SDS011;24605;50.092;9.182;2023-04-24T06:01:22;3.55;;;2.03;;
38851;SDS011;24605;50.092;9.182;2023-04-24T06:03:50;4.85;;;2.30;;
38851;SDS011;24605;50.092;9.182;2023-04-24T06:06:18;4.38;;;1.95;;
38851;SDS011;24605;50.092;9.182;2023-04-24T06:08:46;3.38;;;2.20;;
38851;SDS011;24605;50.092;9.182;2023-04-24T06:11:12;3.30;;;1.98;;
38851;SDS011;24605;50.092;9.182;2023-04-24T06:13:39;5.47;;;2.47;;
38851;SDS011;24605;50.092;9.182;2023-04-24T06:16:07;5.13;;;2.35;;
38851;SDS011;24605;50.092;9.182;2023-04-24T06:18:33;5.03;;;2.47;;
38851;SDS011;24605;50.092;9.182;2023-04-24T06:21:00;5.50;;;2.65;;
38851;SDS011;24605;50.092;9.182;2023-04-24T06:23:26;3.80;;;2.28;;
38851;SDS011;24605;50.092;9.182;2023-04-24T06:25:53;5.88;;;2.90;;
38851;SDS011;24605;50.092;9.182;2023-04-24T06:28:19;6.68;;;2.72;;
38851;SDS011;24605;50.092;9.182;2023-04-24T06:30:46;4.00;;;2.50;;
38851;SDS011;24605;50.092;9.182;2023-04-24T06:33:14;3.72;;;2.30;;
38851;SDS011;24605;50.092;9.182;2023-04-24T06:35:40;5.68;;;2.30;;
38851;SDS011;24605;50.092;9.182;2023-04-24T06:38:07;3.75;;;1.90;;
38851;SDS011;24605;50.092;9.182;2023-04-24T06:40:41;3.90;;;2.22;;
38851;SDS011;24605;50.092;9.182;2023-04-24T06:43:08;7.10;;;2.72;;
38851;SDS011;24605;50.092;9.182;2023-04-24T06:45:35;6.32;;;2.95;;
38851;SDS011;24605;50.092;9.182;2023-04-24T06:48:03;4.63;;;2.92;;
38851;SDS011;24605;50.092;9.182;2023-04-24T06:50:31;4.88;;;2.25;;
38851;SDS011;24605;50.092;9.182;2023-04-24T06:52:57;5.03;;;2.33;;
38851;SDS011;24605;50.092;9.182;2023-04-24T06:55:24;3.35;;;2.08;;
38851;SDS011;24605;50.092;9.182;2023-04-24T06:57:50;5.55;;;2.58;;
38851;SDS011;24605;50.092;9.182;2023-04-24T07:00:17;4.70;;;2.53;;
38851;SDS011;24605;50.092;9.182;2023-04-24T07:02:43;3.58;;;2.17;;
38851;SDS011;24605;50.092;9.182;2023-04-24T07:05:10;4.70;;;2.67;;
38851;SDS011;24605;50.092;9.182;2023-04-24T07:07:39;3.58;;;2.28;;
38851;SDS011;24605;50.092;9.182;2023-04-24T07:10:05;6.20;;;2.72;;
38851;SDS011;24605;50.092;9.182;2023-04-24T07:12:33;5.22;;;2.63;;
38851;SDS011;24605;50.092;9.182;2023-04-24T07:15:00;4.03;;;2.28;;
38851;SDS011;24605;50.092;9.182;2023-04-24T07:17:27;4.95;;;2.38;;
38851;SDS011;24605;50.092;9.182;2023-04-24T07:19:53;3.90;;;2.33;;
38851;SDS011;24605;50.092;9.182;2023-04-24T07:22:20;4.13;;;2.35;;
38851;SDS011;24605;50.092;9.182;2023-04-24T07:24:48;5.65;;;2.50;;
38851;SDS011;24605;50.092;9.182;2023-04-24T07:27:15;4.45;;;2.42;;
38851;SDS011;24605;50.092;9.182;2023-04-24T07:29:41;5.57;;;2.90;;
38851;SDS011;24605;50.092;9.182;2023-04-24T07:32:08;6.22;;;2.83;;
38851;SDS011;24605;50.092;9.182;2023-04-24T07:34:34;4.18;;;2.60;;
38851;SDS011;24605;50.092;9.182;2023-04-24T07:37:01;5.82;;;2.97;;
38851;SDS011;24605;50.092;9.182;2023-04-24T07:39:27;4.80;;;3.08;;
38851;SDS011;24605;50.092;9.182;2023-04-24T07:41:55;8.80;;;3.22;;
38851;SDS011;24605;50.092;9.182;2023-04-24T07:44:23;7.30;;;3.17;;
38851;SDS011;24605;50.092;9.182;2023-04-24T07:46:50;7.00;;;3.08;;
38851;SDS011;24605;50.092;9.182;2023-04-24T07:49:16;6.10;;;3.05;;
38851;SDS011;24605;50.092;9.182;2023-04-24T07:51:43;5.72;;;3.20;;
38851;SDS011;24605;50.092;9.182;2023-04-24T07:54:09;3.90;;;2.58;;
38851;SDS011;24605;50.092;9.182;2023-04-24T07:56:36;4.95;;;2.88;;
38851;SDS011;24605;50.092;9.182;2023-04-24T07:59:05;5.00;;;2.83;;
38851;SDS011;24605;50.092;9.182;2023-04-24T08:01:31;4.70;;;2.30;;
38851;SDS011;24605;50.092;9.182;2023-04-24T08:03:58;5.60;;;2.15;;
38851;SDS011;24605;50.092;9.182;2023-04-24T08:06:24;4.60;;;2.53;;
38851;SDS011;24605;50.092;9.182;2023-04-24T08:08:55;5.38;;;2.80;;
38851;SDS011;24605;50.092;9.182;2023-04-24T08:11:21;5.13;;;2.60;;
38851;SDS011;24605;50.092;9.182;2023-04-24T08:13:48;7.53;;;3.60;;
38851;SDS011;24605;50.092;9.182;2023-04-24T08:16:15;4.15;;;2.70;;
38851;SDS011;24605;50.092;9.182;2023-04-24T08:18:50;4.93;;;3.10;;
38851;SDS011;24605;50.092;9.182;2023-04-24T08:21:17;9.38;;;3.13;;
38851;SDS011;24605;50.092;9.182;2023-04-24T08:23:44;4.75;;;2.80;;
38851;SDS011;24605;50.092;9.182;2023-04-24T08:26:10;7.40;;;3.10;;
38851;SDS011;24605;50.092;9.182;2023-04-24T08:28:37;6.38;;;2.58;;
38851;SDS011;24605;50.092;9.182;2023-04-24T08:31:03;5.15;;;2.55;;
38851;SDS011;24605;50.092;9.182;2023-04-24T08:33:31;4.95;;;2.80;;
38851;SDS011;24605;50.092;9.182;2023-04-24T08:35:59;4.60;;;2.38;;
38851;SDS011;24605;50.092;9.182;2023-04-24T08:38:26;5.10;;;2.75;;
38851;SDS011;24605;50.092;9.182;2023-04-24T08:40:52;5.63;;;2.40;;
38851;SDS011;24605;50.092;9.182;2023-04-24T08:43:20;4.00;;;2.45;;
38851;SDS011;24605;50.092;9.182;2023-04-24T08:45:48;4.22;;;2.40;;
38851;SDS011;24605;50.092;9.182;2023-04-24T08:48:14;4.65;;;2.60;;
38851;SDS011;24605;50.092;9.182;2023-04-24T08:50:44;3.90;;;2.22;;
38851;SDS011;24605;50.092;9.182;2023-04-24T08:53:10;5.75;;;2.60;;
38851;SDS011;24605;50.092;9.182;2023-04-24T08:55:37;5.03;;;2.30;;
38851;SDS011;24605;50.092;9.182;2023-04-24T08:58:04;5.68;;;2.60;;
38851;SDS011;24605;50.092;9.182;2023-04-24T09:00:30;4.43;;;2.55;;
38851;SDS011;24605;50.092;9.182;2023-04-24T09:02:57;4.13;;;2.50;;
38851;SDS011;24605;50.092;9.182;2023-04-24T09:05:26;3.10;;;1.67;;
38851;SDS011;24605;50.092;9.182;2023-04-24T09:07:55;4.40;;;2.55;;
38851;SDS011;24605;50.092;9.182;2023-04-24T09:10:23;4.80;;;2.60;;
38851;SDS011;24605;50.092;9.182;2023-04-24T09:12:51;5.03;;;2.42;;
38851;SDS011;24605;50.092;9.182;2023-04-24T09:15:18;6.07;;;2.67;;
38851;SDS011;24605;50.092;9.182;2023-04-24T09:17:45;4.30;;;2.50;;
38851;SDS011;24605;50.092;9.182;2023-04-24T09:20:12;5.90;;;2.30;;
38851;SDS011;24605;50.092;9.182;2023-04-24T09:22:39;5.78;;;2.00;;
38851;SDS011;24605;50.092;9.182;2023-04-24T09:25:07;4.82;;;2.40;;
38851;SDS011;24605;50.092;9.182;2023-04-24T09:27:37;5.18;;;2.28;;
38851;SDS011;24605;50.092;9.182;2023-04-24T09:30:08;5.60;;;2.25;;
38851;SDS011;24605;50.092;9.182;2023-04-24T09:32:36;4.38;;;2.55;;
38851;SDS011;24605;50.092;9.182;2023-04-24T09:35:09;4.63;;;2.35;;
38851;SDS011;24605;50.092;9.182;2023-04-24T09:37:37;3.53;;;2.25;;
38851;SDS011;24605;50.092;9.182;2023-04-24T09:40:11;4.63;;;2.17;;
38851;SDS011;24605;50.092;9.182;2023-04-24T09:42:43;4.95;;;2.17;;
38851;SDS011;24605;50.092;9.182;2023-04-24T09:45:11;5.03;;;2.22;;
38851;SDS011;24605;50.092;9.182;2023-04-24T09:47:37;4.15;;;2.28;;
38851;SDS011;24605;50.092;9.182;2023-04-24T09:50:14;4.28;;;2.35;;
38851;SDS011;24605;50.092;9.182;2023-04-24T09:52:43;5.78;;;2.63;;
38851;SDS011;24605;50.092;9.182;2023-04-24T09:55:13;5.45;;;2.33;;
38851;SDS011;24605;50.092;9.182;2023-04-24T09:57:50;5.38;;;2.88;;
38851;SDS011;24605;50.092;9.182;2023-04-24T10:00:18;4.43;;;2.45;;
38851;SDS011;24605;50.092;9.182;2023-04-24T10:02:50;4.65;;;2.40;;
38851;SDS011;24605;50.092;9.182;2023-04-24T10:05:22;4.90;;;2.40;;
38851;SDS011;24605;50.092;9.182;2023-04-24T10:07:50;5.60;;;2.38;;
38851;SDS011;24605;50.092;9.182;2023-04-24T10:10:18;5.55;;;2.30;;
38851;SDS011;24605;50.092;9.182;2023-04-24T10:12:45;4.53;;;2.20;;
38851;SDS011;24605;50.092;9.182;2023-04-24T10:15:12;4.45;;;2.00;;
38851;SDS011;24605;50.092;9.182;2023-04-24T10:17:40;5.57;;;1.92;;
38851;SDS011;24605;50.092;9.182;2023-04-24T10:20:07;4.07;;;2.03;;
38851;SDS011;24605;50.092;9.182;2023-04-24T10:22:34;3.88;;;1.67;;
38851;SDS011;24605;50.092;9.182;2023-04-24T10:25:03;3.22;;;1.98;;
38851;SDS011;24605;50.092;9.182;2023-04-24T10:27:31;4.28;;;1.77;;
38851;SDS011;24605;50.092;9.182;2023-04-24T10:29:58;3.08;;;1.77;;
38851;SDS011;24605;50.092;9.182;2023-04-24T10:32:25;3.30;;;1.48;;
38851;SDS011;24605;50.092;9.182;2023-04-24T10:34:52;3.42;;;1.70;;
38851;SDS011;24605;50.092;9.182;2023-04-24T10:37:20;2.95;;;1.60;;
38851;SDS011;24605;50.092;9.182;2023-04-24T10:39:47;3.75;;;1.77;;
38851;SDS011;24605;50.092;9.182;2023-04-24T10:42:14;4.60;;;2.00;;
38851;SDS011;24605;50.092;9.182;2023-04-24T10:44:42;3.22;;;1.95;;
38851;SDS011;24605;50.092;9.182;2023-04-24T10:47:12;3.90;;;2.20;;
38851;SDS011;24605;50.092;9.182;2023-04-24T10:49:39;3.90;;;2.22;;
38851;SDS011;24605;50.092;9.182;2023-04-24T10:52:06;4.50;;;2.25;;
38851;SDS011;24605;50.092;9.182;2023-04-24T10:54:36;4.15;;;2.20;;
38851;SDS011;24605;50.092;9.182;2023-04-24T10:57:26;4.43;;;2.50;;
38851;SDS011;24605;50.092;9.182;2023-04-24T11:00:16;3.97;;;2.55;;
38851;SDS011;24605;50.092;9.182;2023-04-24T11:02:46;6.60;;;2.70;;
38851;SDS011;24605;50.092;9.182;2023-04-24T11:05:18;5.63;;;2.55;;
38851;SDS011;24605;50.092;9.182;2023-04-24T11:10:37;4.75;;;3.05;;
38851;SDS011;24605;50.092;9.182;2023-04-24T11:13:05;7.30;;;4.40;;
38851;SDS011;24605;50.092;9.182;2023-04-24T11:15:33;5.90;;;3.35;;
38851;SDS011;24605;50.092;9.182;2023-04-24T11:18:00;5.95;;;3.00;;
38851;SDS011;24605;50.092;9.182;2023-04-24T11:20:27;5.38;;;3.60;;
38851;SDS011;24605;50.092;9.182;2023-04-24T11:22:53;8.07;;;3.25;;
38851;SDS011;24605;50.092;9.182;2023-04-24T11:25:22;5.10;;;3.15;;
38851;SDS011;24605;50.092;9.182;2023-04-24T11:27:50;7.43;;;4.13;;
38851;SDS011;24605;50.092;9.182;2023-04-24T11:30:28;6.13;;;3.20;;
38851;SDS011;24605;50.092;9.182;2023-04-24T11:32:57;5.72;;;3.47;;
38851;SDS011;24605;50.092;9.182;2023-04-24T11:35:28;6.53;;;3.30;;
38851;SDS011;24605;50.092;9.182;2023-04-24T11:37:55;5.18;;;2.95;;
38851;SDS011;24605;50.092;9.182;2023-04-24T11:40:23;5.57;;;3.60;;
38851;SDS011;24605;50.092;9.182;2023-04-24T11:42:51;5.13;;;3.50;;
38851;SDS011;24605;50.092;9.182;2023-04-24T11:45:21;4.50;;;2.80;;
38851;SDS011;24605;50.092;9.182;2023-04-24T11:49:06;4.30;;;2.50;;
38851;SDS011;24605;50.092;9.182;2023-04-24T11:51:32;3.78;;;2.30;;
38851;SDS011;24605;50.092;9.182;2023-04-24T11:54:00;4.03;;;2.20;;
38851;SDS011;24605;50.092;9.182;2023-04-24T11:56:26;3.78;;;2.22;;
38851;SDS011;24605;50.092;9.182;2023-04-24T11:58:53;4.22;;;2.17;;
38851;SDS011;24605;50.092;9.182;2023-04-24T12:01:20;3.80;;;2.00;;
38851;SDS011;24605;50.092;9.182;2023-04-24T12:03:47;5.28;;;2.55;;
38851;SDS011;24605;50.092;9.182;2023-04-24T12:06:17;3.42;;;1.83;;
38851;SDS011;24605;50.092;9.182;2023-04-24T12:08:45;3.50;;;1.85;;
38851;SDS011;24605;50.092;9.182;2023-04-24T12:11:14;4.40;;;2.08;;
38851;SDS011;24605;50.092;9.182;2023-04-24T12:13:41;4.47;;;1.95;;
38851;SDS011;24605;50.092;9.182;2023-04-24T12:16:08;3.83;;;1.75;;
38851;SDS011;24605;50.092;9.182;2023-04-24T12:18:34;2.70;;;1.50;;
38851;SDS011;24605;50.092;9.182;2023-04-24T12:21:21;2.53;;;1.50;;
38851;SDS011;24605;50.092;9.182;2023-04-24T12:23:53;3.47;;;1.40;;
38851;SDS011;24605;50.092;9.182;2023-04-24T12:26:20;3.05;;;1.10;;
38851;SDS011;24605;50.092;9.182;2023-04-24T12:28:48;2.15;;;1.20;;
38851;SDS011;24605;50.092;9.182;2023-04-24T12:31:15;2.45;;;1.30;;
38851;SDS011;24605;50.092;9.182;2023-04-24T12:33:42;2.47;;;1.20;;
38851;SDS011;24605;50.092;9.182;2023-04-24T12:36:09;2.72;;;1.30;;
38851;SDS011;24605;50.092;9.182;2023-04-24T12:38:39;1.80;;;1.10;;
38851;SDS011;24605;50.092;9.182;2023-04-24T12:41:09;1.67;;;1.13;;
38851;SDS011;24605;50.092;9.182;2023-04-24T12:43:37;1.17;;;0.80;;
38851;SDS011;24605;50.092;9.182;2023-04-24T12:46:04;3.42;;;1.33;;
38851;SDS011;24605;50.092;9.182;2023-04-24T12:48:30;1.63;;;0.82;;
38851;SDS011;24605;50.092;9.182;2023-04-24T12:50:57;1.70;;;0.93;;
38851;SDS011;24605;50.092;9.182;2023-04-24T12:53:26;1.75;;;1.00;;
38851;SDS011;24605;50.092;9.182;2023-04-24T12:55:55;2.50;;;1.10;;
38851;SDS011;24605;50.092;9.182;2023-04-24T12:58:22;3.33;;;1.10;;
38851;SDS011;24605;50.092;9.182;2023-04-24T13:00:51;2.67;;;1.40;;
38851;SDS011;24605;50.092;9.182;2023-04-24T13:03:18;2.67;;;1.40;;
38851;SDS011;24605;50.092;9.182;2023-04-24T13:05:44;3.80;;;1.83;;
38851;SDS011;24605;50.092;9.182;2023-04-24T13:08:11;2.70;;;1.60;;
38851;SDS011;24605;50.092;9.182;2023-04-24T13:10:38;3.20;;;1.65;;
38851;SDS011;24605;50.092;9.182;2023-04-24T13:13:07;3.35;;;1.67;;
38851;SDS011;24605;50.092;9.182;2023-04-24T13:15:34;3.75;;;1.67;;
38851;SDS011;24605;50.092;9.182;2023-04-24T13:18:00;2.72;;;1.50;;
38851;SDS011;24605;50.092;9.182;2023-04-24T13:20:27;3.67;;;1.70;;
38851;SDS011;24605;50.092;9.182;2023-04-24T13:22:53;5.22;;;1.73;;
38851;SDS011;24605;50.092;9.182;2023-04-24T13:25:20;3.63;;;1.70;;
38851;SDS011;24605;50.092;9.182;2023-04-24T13:27:48;3.42;;;1.50;;
38851;SDS011;24605;50.092;9.182;2023-04-24T13:30:16;3.28;;;1.60;;
38851;SDS011;24605;50.092;9.182;2023-04-24T13:32:42;2.88;;;1.30;;
38851;SDS011;24605;50.092;9.182;2023-04-24T13:35:17;4.22;;;1.38;;
38851;SDS011;24605;50.092;9.182;2023-04-24T13:37:58;3.40;;;1.15;;
38851;SDS011;24605;50.092;9.182;2023-04-24T13:40:26;2.83;;;1.35;;
38851;SDS011;24605;50.092;9.182;2023-04-24T13:42:53;3.85;;;1.30;;
38851;SDS011;24605;50.092;9.182;2023-04-24T13:45:21;4.25;;;1.77;;
38851;SDS011;24605;50.092;9.182;2023-04-24T13:47:48;4.10;;;1.70;;
38851;SDS011;24605;50.092;9.182;2023-04-24T13:50:14;3.25;;;1.85;;
38851;SDS011;24605;50.092;9.182;2023-04-24T13:52:41;5.15;;;2.38;;
38851;SDS011;24605;50.092;9.182;2023-04-24T13:55:07;5.20;;;2.70;;
38851;SDS011;24605;50.092;9.182;2023-04-24T13:57:34;4.80;;;2.53;;
38851;SDS011;24605;50.092;9.182;2023-04-24T14:00:01;5.43;;;2.75;;
38851;SDS011;24605;50.092;9.182;2023-04-24T14:02:30;5.63;;;2.70;;
38851;SDS011;24605;50.092;9.182;2023-04-24T14:04:56;4.55;;;2.70;;
38851;SDS011;24605;50.092;9.182;2023-04-24T14:07:23;4.95;;;2.97;;
38851;SDS011;24605;50.092;9.182;2023-04-24T14:09:49;5.72;;;3.10;;
38851;SDS011;24605;50.092;9.182;2023-04-24T14:12:16;6.13;;;2.70;;
38851;SDS011;24605;50.092;9.182;2023-04-24T14:14:44;5.68;;;3.28;;
38851;SDS011;24605;50.092;9.182;2023-04-24T14:17:11;6.20;;;3.00;;
38851;SDS011;24605;50.092;9.182;2023-04-24T14:19:39;6.68;;;3.40;;
38851;SDS011;24605;50.092;9.182;2023-04-24T14:22:06;6.45;;;3.20;;
38851;SDS011;24605;50.092;9.182;2023-04-24T14:24:32;6.20;;;3.35;;
38851;SDS011;24605;50.092;9.182;2023-04-24T14:26:59;7.43;;;3.15;;
38851;SDS011;24605;50.092;9.182;2023-04-24T14:29:26;7.80;;;4.20;;
38851;SDS011;24605;50.092;9.182;2023-04-24T14:31:52;5.90;;;3.17;;
38851;SDS011;24605;50.092;9.182;2023-04-24T14:34:19;9.15;;;4.90;;
38851;SDS011;24605;50.092;9.182;2023-04-24T14:36:47;7.45;;;4.22;;
38851;SDS011;24605;50.092;9.182;2023-04-24T14:39:13;6.90;;;3.55;;
38851;SDS011;24605;50.092;9.182;2023-04-24T14:41:40;7.30;;;4.00;;
38851;SDS011;24605;50.092;9.182;2023-04-24T14:44:06;10.05;;;3.70;;
38851;SDS011;24605;50.092;9.182;2023-04-24T14:46:33;8.02;;;4.18;;
38851;SDS011;24605;50.092;9.182;2023-04-24T14:48:59;7.93;;;3.97;;
38851;SDS011;24605;50.092;9.182;2023-04-24T14:51:26;9.52;;;4.07;;
38851;SDS011;24605;50.092;9.182;2023-04-24T14:53:54;5.57;;;3.42;;